sensor_id;sensor_type;location;lat;lon;timestamp;temperature;humidity
17715;DHT22;8977;50.902;4.314;2023-07-13T00:00:23;22.60;99.90
17715;DHT22;8977;50.902;4.314;2023-07-13T00:02:51;22.50;99.90
17715;DHT22;8977;50.902;4.314;2023-07-13T00:05:19;22.60;99.90
17715;DHT22;8977;50.902;4.314;2023-07-13T00:07:47;22.60;99.90
17715;DHT22;8977;50.902;4.314;2023-07-13T00:10:15;22.60;99.90
17715;DHT22;8977;50.902;4.314;2023-07-13T00:12:43;22.50;99.90
17715;DHT22;8977;50.902;4.314;2023-07-13T00:15:13;22.50;99.90
17715;DHT22;8977;50.902;4.314;2023-07-13T00:17:43;22.50;99.90
17715;DHT22;8977;50.902;4.314;2023-07-13T00:20:11;22.40;99.90
17715;DHT22;8977;50.902;4.314;2023-07-13T00:22:39;22.30;99.90
17715;DHT22;8977;50.902;4.314;2023-07-13T00:25:08;22.40;99.90
17715;DHT22;8977;50.902;4.314;2023-07-13T00:27:36;22.40;99.90
17715;DHT22;8977;50.902;4.314;2023-07-13T00:30:06;22.40;99.90
17715;DHT22;8977;50.902;4.314;2023-07-13T00:32:34;22.40;99.90
17715;DHT22;8977;50.902;4.314;2023-07-13T00:35:03;22.40;99.90
17715;DHT22;8977;50.902;4.314;2023-07-13T00:37:30;22.40;99.90
17715;DHT22;8977;50.902;4.314;2023-07-13T00:39:57;22.40;99.90
17715;DHT22;8977;50.902;4.314;2023-07-13T00:42:24;22.40;99.90
17715;DHT22;8977;50.902;4.314;2023-07-13T00:45:07;22.50;99.90
17715;DHT22;8977;50.902;4.314;2023-07-13T00:47:34;22.50;99.90
17715;DHT22;8977;50.902;4.314;2023-07-13T00:50:03;22.40;99.90
17715;DHT22;8977;50.902;4.314;2023-07-13T00:52:31;22.40;99.90
17715;DHT22;8977;50.902;4.314;2023-07-13T00:54:58;22.40;99.90
17715;DHT22;8977;50.902;4.314;2023-07-13T00:57:26;22.40;99.90
17715;DHT22;8977;50.902;4.314;2023-07-13T00:59:57;22.40;99.90
17715;DHT22;8977;50.902;4.314;2023-07-13T01:02:28;22.40;99.90
17715;DHT22;8977;50.902;4.314;2023-07-13T01:04:56;22.40;99.90
17715;DHT22;8977;50.902;4.314;2023-07-13T01:07:31;22.40;99.90
17715;DHT22;8977;50.902;4.314;2023-07-13T01:09:57;22.30;99.90
17715;DHT22;8977;50.902;4.314;2023-07-13T01:12:24;22.30;99.90
17715;DHT22;8977;50.902;4.314;2023-07-13T01:14:57;22.30;99.90
17715;DHT22;8977;50.902;4.314;2023-07-13T01:17:24;22.30;99.90
17715;DHT22;8977;50.902;4.314;2023-07-13T01:19:51;22.30;99.90
17715;DHT22;8977;50.902;4.314;2023-07-13T01:22:20;22.30;99.90
17715;DHT22;8977;50.902;4.314;2023-07-13T01:24:51;22.40;99.90
17715;DHT22;8977;50.902;4.314;2023-07-13T01:27:22;22.30;99.90
17715;DHT22;8977;50.902;4.314;2023-07-13T01:29:51;22.30;99.90
17715;DHT22;8977;50.902;4.314;2023-07-13T01:32:23;22.40;99.90
17715;DHT22;8977;50.902;4.314;2023-07-13T01:34:52;22.30;99.90
17715;DHT22;8977;50.902;4.314;2023-07-13T01:37:21;22.40;99.90
17715;DHT22;8977;50.902;4.314;2023-07-13T01:39:48;22.30;99.90
17715;DHT22;8977;50.902;4.314;2023-07-13T01:42:15;22.30;99.90
17715;DHT22;8977;50.902;4.314;2023-07-13T01:44:42;22.30;99.90
17715;DHT22;8977;50.902;4.314;2023-07-13T01:47:10;22.30;99.90
17715;DHT22;8977;50.902;4.314;2023-07-13T01:49:37;22.30;99.90
17715;DHT22;8977;50.902;4.314;2023-07-13T01:52:04;22.30;99.90
17715;DHT22;8977;50.902;4.314;2023-07-13T01:54:34;22.30;99.90
17715;DHT22;8977;50.902;4.314;2023-07-13T01:57:02;22.30;99.90
17715;DHT22;8977;50.902;4.314;2023-07-13T01:59:29;22.20;99.90
17715;DHT22;8977;50.902;4.314;2023-07-13T02:01:58;22.20;99.90
17715;DHT22;8977;50.902;4.314;2023-07-13T02:04:28;22.20;99.90
17715;DHT22;8977;50.902;4.314;2023-07-13T02:06:55;22.20;99.90
17715;DHT22;8977;50.902;4.314;2023-07-13T02:09:23;22.20;99.90
17715;DHT22;8977;50.902;4.314;2023-07-13T02:11:53;22.20;99.90
17715;DHT22;8977;50.902;4.314;2023-07-13T02:14:20;22.20;99.90
17715;DHT22;8977;50.902;4.314;2023-07-13T02:16:50;22.20;99.90
17715;DHT22;8977;50.902;4.314;2023-07-13T02:19:18;22.10;99.90
17715;DHT22;8977;50.902;4.314;2023-07-13T02:21:46;22.10;99.90
17715;DHT22;8977;50.902;4.314;2023-07-13T02:24:13;22.00;99.90
17715;DHT22;8977;50.902;4.314;2023-07-13T02:26:43;22.00;99.90
17715;DHT22;8977;50.902;4.314;2023-07-13T02:29:11;22.00;99.90
17715;DHT22;8977;50.902;4.314;2023-07-13T02:31:39;22.10;99.90
17715;DHT22;8977;50.902;4.314;2023-07-13T02:34:08;22.00;99.90
17715;DHT22;8977;50.902;4.314;2023-07-13T02:36:35;22.00;99.90
17715;DHT22;8977;50.902;4.314;2023-07-13T02:39:04;22.00;99.90
17715;DHT22;8977;50.902;4.314;2023-07-13T02:41:32;22.00;99.90
17715;DHT22;8977;50.902;4.314;2023-07-13T02:43:59;22.00;99.90
17715;DHT22;8977;50.902;4.314;2023-07-13T02:46:30;22.00;99.90
17715;DHT22;8977;50.902;4.314;2023-07-13T02:48:57;22.00;99.90
17715;DHT22;8977;50.902;4.314;2023-07-13T02:51:24;21.90;99.90
17715;DHT22;8977;50.902;4.314;2023-07-13T02:53:52;22.00;99.90
17715;DHT22;8977;50.902;4.314;2023-07-13T02:56:23;22.00;99.90
17715;DHT22;8977;50.902;4.314;2023-07-13T02:58:52;22.00;99.90
17715;DHT22;8977;50.902;4.314;2023-07-13T03:01:19;22.00;99.90
17715;DHT22;8977;50.902;4.314;2023-07-13T03:03:49;21.90;99.90
17715;DHT22;8977;50.902;4.314;2023-07-13T03:06:16;21.80;99.90
17715;DHT22;8977;50.902;4.314;2023-07-13T03:08:44;21.80;99.90
17715;DHT22;8977;50.902;4.314;2023-07-13T03:11:12;21.80;99.90
17715;DHT22;8977;50.902;4.314;2023-07-13T03:13:41;21.90;99.90
17715;DHT22;8977;50.902;4.314;2023-07-13T03:16:09;21.90;99.90
17715;DHT22;8977;50.902;4.314;2023-07-13T03:18:37;21.90;99.90
17715;DHT22;8977;50.902;4.314;2023-07-13T03:21:06;21.80;99.90
17715;DHT22;8977;50.902;4.314;2023-07-13T03:23:33;21.70;99.90
17715;DHT22;8977;50.902;4.314;2023-07-13T03:26:05;21.70;99.90
17715;DHT22;8977;50.902;4.314;2023-07-13T03:28:35;21.80;99.90
17715;DHT22;8977;50.902;4.314;2023-07-13T03:31:04;21.70;99.90
17715;DHT22;8977;50.902;4.314;2023-07-13T03:33:31;21.80;99.90
17715;DHT22;8977;50.902;4.314;2023-07-13T03:35:58;21.80;99.90
17715;DHT22;8977;50.902;4.314;2023-07-13T03:38:26;21.80;99.90
17715;DHT22;8977;50.902;4.314;2023-07-13T03:40:54;21.80;99.90
17715;DHT22;8977;50.902;4.314;2023-07-13T03:43:22;21.80;99.90
17715;DHT22;8977;50.902;4.314;2023-07-13T03:45:49;21.70;99.90
17715;DHT22;8977;50.902;4.314;2023-07-13T03:48:16;21.70;99.90
17715;DHT22;8977;50.902;4.314;2023-07-13T03:50:43;21.70;99.90
17715;DHT22;8977;50.902;4.314;2023-07-13T03:53:16;21.70;99.90
17715;DHT22;8977;50.902;4.314;2023-07-13T03:55:45;21.70;99.90
17715;DHT22;8977;50.902;4.314;2023-07-13T03:58:33;21.70;99.90
17715;DHT22;8977;50.902;4.314;2023-07-13T04:01:02;21.70;99.90
17715;DHT22;8977;50.902;4.314;2023-07-13T04:03:31;21.60;99.90
17715;DHT22;8977;50.902;4.314;2023-07-13T04:05:58;21.60;99.90
17715;DHT22;8977;50.902;4.314;2023-07-13T04:08:27;21.60;99.90
17715;DHT22;8977;50.902;4.314;2023-07-13T04:10:56;21.60;99.90
17715;DHT22;8977;50.902;4.314;2023-07-13T04:13:24;21.60;99.90
17715;DHT22;8977;50.902;4.314;2023-07-13T04:15:52;21.60;99.90
17715;DHT22;8977;50.902;4.314;2023-07-13T04:18:20;21.60;99.90
17715;DHT22;8977;50.902;4.314;2023-07-13T04:20:47;21.60;99.90
17715;DHT22;8977;50.902;4.314;2023-07-13T04:23:16;21.60;99.90
17715;DHT22;8977;50.902;4.314;2023-07-13T04:25:44;21.60;99.90
17715;DHT22;8977;50.902;4.314;2023-07-13T04:28:12;21.60;99.90
17715;DHT22;8977;50.902;4.314;2023-07-13T04:30:39;21.50;99.90
17715;DHT22;8977;50.902;4.314;2023-07-13T04:33:06;21.50;99.90
17715;DHT22;8977;50.902;4.314;2023-07-13T04:35:34;21.50;99.90
17715;DHT22;8977;50.902;4.314;2023-07-13T04:38:01;21.50;99.90
17715;DHT22;8977;50.902;4.314;2023-07-13T04:40:28;21.50;99.90
17715;DHT22;8977;50.902;4.314;2023-07-13T04:42:55;21.50;99.90
17715;DHT22;8977;50.902;4.314;2023-07-13T04:45:24;21.50;99.90
17715;DHT22;8977;50.902;4.314;2023-07-13T04:47:51;21.40;99.90
17715;DHT22;8977;50.902;4.314;2023-07-13T04:50:18;21.50;99.90
17715;DHT22;8977;50.902;4.314;2023-07-13T04:52:49;21.40;99.90
17715;DHT22;8977;50.902;4.314;2023-07-13T04:55:16;21.40;99.90
17715;DHT22;8977;50.902;4.314;2023-07-13T04:57:44;21.40;99.90
17715;DHT22;8977;50.902;4.314;2023-07-13T05:00:12;21.40;99.90
17715;DHT22;8977;50.902;4.314;2023-07-13T05:02:44;21.40;99.90
17715;DHT22;8977;50.902;4.314;2023-07-13T05:05:11;21.40;99.90
17715;DHT22;8977;50.902;4.314;2023-07-13T05:07:38;21.40;99.90
17715;DHT22;8977;50.902;4.314;2023-07-13T05:10:06;21.40;99.90
17715;DHT22;8977;50.902;4.314;2023-07-13T05:12:33;21.50;99.90
17715;DHT22;8977;50.902;4.314;2023-07-13T05:15:00;21.40;99.90
17715;DHT22;8977;50.902;4.314;2023-07-13T05:17:28;21.50;99.90
17715;DHT22;8977;50.902;4.314;2023-07-13T05:19:56;21.60;99.90
17715;DHT22;8977;50.902;4.314;2023-07-13T05:22:23;21.50;99.90
17715;DHT22;8977;50.902;4.314;2023-07-13T05:24:50;21.50;99.90
17715;DHT22;8977;50.902;4.314;2023-07-13T05:27:17;21.50;99.90
17715;DHT22;8977;50.902;4.314;2023-07-13T05:29:44;21.60;99.90
17715;DHT22;8977;50.902;4.314;2023-07-13T05:32:11;21.50;99.90
17715;DHT22;8977;50.902;4.314;2023-07-13T05:34:37;21.50;99.90
17715;DHT22;8977;50.902;4.314;2023-07-13T05:37:07;21.50;99.90
17715;DHT22;8977;50.902;4.314;2023-07-13T05:39:34;21.50;99.90
17715;DHT22;8977;50.902;4.314;2023-07-13T05:42:01;21.60;99.90
17715;DHT22;8977;50.902;4.314;2023-07-13T05:44:29;21.60;99.90
17715;DHT22;8977;50.902;4.314;2023-07-13T05:46:55;21.60;99.90
17715;DHT22;8977;50.902;4.314;2023-07-13T05:49:22;21.60;99.90
17715;DHT22;8977;50.902;4.314;2023-07-13T05:51:49;21.60;99.90
17715;DHT22;8977;50.902;4.314;2023-07-13T05:54:18;21.50;99.90
17715;DHT22;8977;50.902;4.314;2023-07-13T05:56:45;21.60;99.90
17715;DHT22;8977;50.902;4.314;2023-07-13T05:59:12;21.50;99.90
17715;DHT22;8977;50.902;4.314;2023-07-13T06:01:39;21.40;99.90
17715;DHT22;8977;50.902;4.314;2023-07-13T06:04:06;21.40;99.90
17715;DHT22;8977;50.902;4.314;2023-07-13T06:06:33;21.40;99.90
17715;DHT22;8977;50.902;4.314;2023-07-13T06:08:59;21.40;99.90
17715;DHT22;8977;50.902;4.314;2023-07-13T06:11:28;21.40;99.90
17715;DHT22;8977;50.902;4.314;2023-07-13T06:13:55;21.30;99.90
17715;DHT22;8977;50.902;4.314;2023-07-13T06:16:22;21.30;99.90
17715;DHT22;8977;50.902;4.314;2023-07-13T06:18:49;21.30;99.90
17715;DHT22;8977;50.902;4.314;2023-07-13T06:21:18;21.30;99.90
17715;DHT22;8977;50.902;4.314;2023-07-13T06:23:46;21.50;99.90
17715;DHT22;8977;50.902;4.314;2023-07-13T06:26:14;21.50;99.90
17715;DHT22;8977;50.902;4.314;2023-07-13T06:28:43;21.50;99.90
17715;DHT22;8977;50.902;4.314;2023-07-13T06:31:11;21.40;99.90
17715;DHT22;8977;50.902;4.314;2023-07-13T06:33:38;21.40;99.90
17715;DHT22;8977;50.902;4.314;2023-07-13T06:36:06;21.40;99.90
17715;DHT22;8977;50.902;4.314;2023-07-13T06:38:35;21.30;99.90
17715;DHT22;8977;50.902;4.314;2023-07-13T06:41:02;21.30;99.90
17715;DHT22;8977;50.902;4.314;2023-07-13T06:43:29;21.40;99.90
17715;DHT22;8977;50.902;4.314;2023-07-13T06:45:59;21.40;99.90
17715;DHT22;8977;50.902;4.314;2023-07-13T06:48:26;21.40;99.90
17715;DHT22;8977;50.902;4.314;2023-07-13T06:50:53;21.40;99.90
17715;DHT22;8977;50.902;4.314;2023-07-13T06:53:20;21.40;99.90
17715;DHT22;8977;50.902;4.314;2023-07-13T06:55:48;21.40;99.90
17715;DHT22;8977;50.902;4.314;2023-07-13T06:58:16;21.40;99.90
17715;DHT22;8977;50.902;4.314;2023-07-13T07:00:44;21.40;99.90
17715;DHT22;8977;50.902;4.314;2023-07-13T07:03:13;21.40;99.90
17715;DHT22;8977;50.902;4.314;2023-07-13T07:05:39;21.60;99.90
17715;DHT22;8977;50.902;4.314;2023-07-13T07:08:06;21.60;99.90
17715;DHT22;8977;50.902;4.314;2023-07-13T07:10:34;21.70;99.90
17715;DHT22;8977;50.902;4.314;2023-07-13T07:13:01;21.60;99.90
17715;DHT22;8977;50.902;4.314;2023-07-13T07:15:29;21.60;99.90
17715;DHT22;8977;50.902;4.314;2023-07-13T07:17:56;21.70;99.90
17715;DHT22;8977;50.902;4.314;2023-07-13T07:20:25;21.60;99.90
17715;DHT22;8977;50.902;4.314;2023-07-13T07:22:55;21.70;99.90
17715;DHT22;8977;50.902;4.314;2023-07-13T07:25:23;21.80;99.90
17715;DHT22;8977;50.902;4.314;2023-07-13T07:27:49;21.70;99.90
17715;DHT22;8977;50.902;4.314;2023-07-13T07:30:16;21.80;99.90
17715;DHT22;8977;50.902;4.314;2023-07-13T07:32:43;22.00;99.90
17715;DHT22;8977;50.902;4.314;2023-07-13T07:35:12;22.00;99.90
17715;DHT22;8977;50.902;4.314;2023-07-13T07:37:42;22.00;99.90
17715;DHT22;8977;50.902;4.314;2023-07-13T07:40:09;22.00;99.90
17715;DHT22;8977;50.902;4.314;2023-07-13T07:42:35;21.90;99.90
17715;DHT22;8977;50.902;4.314;2023-07-13T07:45:06;22.00;99.90
17715;DHT22;8977;50.902;4.314;2023-07-13T07:47:34;22.00;99.90
17715;DHT22;8977;50.902;4.314;2023-07-13T07:50:01;21.90;99.90
17715;DHT22;8977;50.902;4.314;2023-07-13T07:52:28;21.90;99.90
17715;DHT22;8977;50.902;4.314;2023-07-13T07:54:56;22.00;99.90
17715;DHT22;8977;50.902;4.314;2023-07-13T07:57:23;22.00;99.90
17715;DHT22;8977;50.902;4.314;2023-07-13T07:59:50;22.00;99.90
17715;DHT22;8977;50.902;4.314;2023-07-13T08:02:17;22.10;99.90
17715;DHT22;8977;50.902;4.314;2023-07-13T08:04:45;22.10;99.90
17715;DHT22;8977;50.902;4.314;2023-07-13T08:07:12;22.20;99.90
17715;DHT22;8977;50.902;4.314;2023-07-13T08:09:38;22.20;99.90
17715;DHT22;8977;50.902;4.314;2023-07-13T08:12:08;22.20;99.90
17715;DHT22;8977;50.902;4.314;2023-07-13T08:14:35;22.20;99.90
17715;DHT22;8977;50.902;4.314;2023-07-13T08:17:04;22.20;99.90
17715;DHT22;8977;50.902;4.314;2023-07-13T08:19:31;22.20;99.90
17715;DHT22;8977;50.902;4.314;2023-07-13T08:21:58;22.30;99.90
17715;DHT22;8977;50.902;4.314;2023-07-13T08:24:24;22.30;99.90
17715;DHT22;8977;50.902;4.314;2023-07-13T08:26:51;22.30;99.90
17715;DHT22;8977;50.902;4.314;2023-07-13T08:29:20;22.40;99.90
17715;DHT22;8977;50.902;4.314;2023-07-13T08:31:47;22.40;99.90
17715;DHT22;8977;50.902;4.314;2023-07-13T08:34:14;22.50;99.90
17715;DHT22;8977;50.902;4.314;2023-07-13T08:36:41;22.40;99.90
17715;DHT22;8977;50.902;4.314;2023-07-13T08:39:08;22.50;99.90
17715;DHT22;8977;50.902;4.314;2023-07-13T08:41:35;22.50;99.90
17715;DHT22;8977;50.902;4.314;2023-07-13T08:44:05;22.50;99.90
17715;DHT22;8977;50.902;4.314;2023-07-13T08:46:38;22.50;99.90
17715;DHT22;8977;50.902;4.314;2023-07-13T08:49:09;22.60;99.90
17715;DHT22;8977;50.902;4.314;2023-07-13T08:51:43;22.60;99.90
17715;DHT22;8977;50.902;4.314;2023-07-13T08:54:20;22.60;99.90
17715;DHT22;8977;50.902;4.314;2023-07-13T08:56:50;22.70;99.90
17715;DHT22;8977;50.902;4.314;2023-07-13T08:59:20;22.70;99.90
17715;DHT22;8977;50.902;4.314;2023-07-13T09:04:57;22.70;99.90
17715;DHT22;8977;50.902;4.314;2023-07-13T09:07:41;22.70;99.90
17715;DHT22;8977;50.902;4.314;2023-07-13T09:10:15;22.80;99.90
17715;DHT22;8977;50.902;4.314;2023-07-13T09:12:57;22.90;99.90
17715;DHT22;8977;50.902;4.314;2023-07-13T09:15:30;22.80;99.90
17715;DHT22;8977;50.902;4.314;2023-07-13T09:18:02;23.00;99.90
17715;DHT22;8977;50.902;4.314;2023-07-13T09:20:35;23.00;99.90
17715;DHT22;8977;50.902;4.314;2023-07-13T09:23:05;23.00;99.90
17715;DHT22;8977;50.902;4.314;2023-07-13T09:25:35;22.90;99.90
17715;DHT22;8977;50.902;4.314;2023-07-13T09:28:11;22.90;99.90
17715;DHT22;8977;50.902;4.314;2023-07-13T09:30:45;23.00;99.90
17715;DHT22;8977;50.902;4.314;2023-07-13T09:33:14;23.10;99.90
17715;DHT22;8977;50.902;4.314;2023-07-13T09:35:41;23.10;99.90
17715;DHT22;8977;50.902;4.314;2023-07-13T09:38:13;23.10;99.90
17715;DHT22;8977;50.902;4.314;2023-07-13T09:40:59;23.00;99.90
17715;DHT22;8977;50.902;4.314;2023-07-13T09:43:28;22.90;99.90
17715;DHT22;8977;50.902;4.314;2023-07-13T09:45:55;23.00;99.90
17715;DHT22;8977;50.902;4.314;2023-07-13T09:48:24;23.00;99.90
17715;DHT22;8977;50.902;4.314;2023-07-13T09:50:54;23.20;99.90
17715;DHT22;8977;50.902;4.314;2023-07-13T09:53:22;23.20;99.90
17715;DHT22;8977;50.902;4.314;2023-07-13T09:55:49;23.40;99.90
17715;DHT22;8977;50.902;4.314;2023-07-13T09:58:21;23.30;99.90
17715;DHT22;8977;50.902;4.314;2023-07-13T10:00:57;23.30;99.90
17715;DHT22;8977;50.902;4.314;2023-07-13T10:03:27;23.30;99.90
17715;DHT22;8977;50.902;4.314;2023-07-13T10:06:03;23.20;99.90
17715;DHT22;8977;50.902;4.314;2023-07-13T10:08:35;23.20;99.90
17715;DHT22;8977;50.902;4.314;2023-07-13T10:11:10;23.20;99.90
17715;DHT22;8977;50.902;4.314;2023-07-13T10:13:41;23.30;99.90
17715;DHT22;8977;50.902;4.314;2023-07-13T10:16:09;23.30;99.90
17715;DHT22;8977;50.902;4.314;2023-07-13T10:18:43;23.40;99.90
17715;DHT22;8977;50.902;4.314;2023-07-13T10:21:14;23.30;99.90
17715;DHT22;8977;50.902;4.314;2023-07-13T10:23:42;23.20;99.90
17715;DHT22;8977;50.902;4.314;2023-07-13T10:26:15;23.20;99.90
17715;DHT22;8977;50.902;4.314;2023-07-13T10:28:45;23.30;99.90
17715;DHT22;8977;50.902;4.314;2023-07-13T10:31:15;23.20;99.90
17715;DHT22;8977;50.902;4.314;2023-07-13T10:33:44;23.20;99.90
17715;DHT22;8977;50.902;4.314;2023-07-13T10:36:19;23.20;99.90
17715;DHT22;8977;50.902;4.314;2023-07-13T10:38:50;23.20;99.90
17715;DHT22;8977;50.902;4.314;2023-07-13T10:41:21;23.30;99.90
17715;DHT22;8977;50.902;4.314;2023-07-13T10:43:52;23.20;99.90
17715;DHT22;8977;50.902;4.314;2023-07-13T10:46:23;23.10;99.90
17715;DHT22;8977;50.902;4.314;2023-07-13T10:48:56;23.10;99.90
17715;DHT22;8977;50.902;4.314;2023-07-13T10:51:25;23.00;99.90
17715;DHT22;8977;50.902;4.314;2023-07-13T10:54:16;23.00;99.90
17715;DHT22;8977;50.902;4.314;2023-07-13T10:56:44;23.00;99.90
17715;DHT22;8977;50.902;4.314;2023-07-13T10:59:14;23.00;99.90
17715;DHT22;8977;50.902;4.314;2023-07-13T11:01:50;23.00;99.90
17715;DHT22;8977;50.902;4.314;2023-07-13T11:04:20;23.10;99.90
17715;DHT22;8977;50.902;4.314;2023-07-13T11:06:48;23.10;99.90
17715;DHT22;8977;50.902;4.314;2023-07-13T11:09:33;23.20;99.90
17715;DHT22;8977;50.902;4.314;2023-07-13T11:12:02;23.20;99.90
17715;DHT22;8977;50.902;4.314;2023-07-13T11:14:35;23.30;99.90
17715;DHT22;8977;50.902;4.314;2023-07-13T11:17:29;23.30;99.90
17715;DHT22;8977;50.902;4.314;2023-07-13T11:22:52;23.30;99.90
17715;DHT22;8977;50.902;4.314;2023-07-13T11:25:28;23.30;99.90
17715;DHT22;8977;50.902;4.314;2023-07-13T11:28:24;23.20;99.90
17715;DHT22;8977;50.902;4.314;2023-07-13T11:31:03;23.30;99.90
17715;DHT22;8977;50.902;4.314;2023-07-13T11:33:56;23.30;99.90
17715;DHT22;8977;50.902;4.314;2023-07-13T11:36:30;23.20;99.90
17715;DHT22;8977;50.902;4.314;2023-07-13T11:39:02;23.20;99.90
17715;DHT22;8977;50.902;4.314;2023-07-13T11:41:31;23.20;99.90
17715;DHT22;8977;50.902;4.314;2023-07-13T11:44:12;23.10;99.90
17715;DHT22;8977;50.902;4.314;2023-07-13T11:46:45;23.10;99.90
17715;DHT22;8977;50.902;4.314;2023-07-13T11:49:16;23.00;99.90
17715;DHT22;8977;50.902;4.314;2023-07-13T11:51:46;22.90;99.90
17715;DHT22;8977;50.902;4.314;2023-07-13T11:54:24;22.80;99.90
17715;DHT22;8977;50.902;4.314;2023-07-13T11:56:54;22.70;99.90
17715;DHT22;8977;50.902;4.314;2023-07-13T11:59:21;22.70;99.90
17715;DHT22;8977;50.902;4.314;2023-07-13T12:01:51;22.70;99.90
17715;DHT22;8977;50.902;4.314;2023-07-13T12:04:23;22.70;99.90
17715;DHT22;8977;50.902;4.314;2023-07-13T12:07:04;22.60;99.90
17715;DHT22;8977;50.902;4.314;2023-07-13T12:09:33;22.70;99.90
17715;DHT22;8977;50.902;4.314;2023-07-13T12:12:02;22.70;99.90
17715;DHT22;8977;50.902;4.314;2023-07-13T12:14:29;22.70;99.90
17715;DHT22;8977;50.902;4.314;2023-07-13T12:16:59;22.70;99.90
17715;DHT22;8977;50.902;4.314;2023-07-13T12:19:28;22.80;99.90
17715;DHT22;8977;50.902;4.314;2023-07-13T12:21:58;22.70;99.90
17715;DHT22;8977;50.902;4.314;2023-07-13T12:24:26;22.60;99.90
17715;DHT22;8977;50.902;4.314;2023-07-13T12:26:55;22.50;99.90
17715;DHT22;8977;50.902;4.314;2023-07-13T12:29:22;22.50;99.90
17715;DHT22;8977;50.902;4.314;2023-07-13T12:31:49;22.40;99.90
17715;DHT22;8977;50.902;4.314;2023-07-13T12:34:19;22.30;99.90
17715;DHT22;8977;50.902;4.314;2023-07-13T12:36:49;22.30;99.90
17715;DHT22;8977;50.902;4.314;2023-07-13T12:39:20;22.30;99.90
17715;DHT22;8977;50.902;4.314;2023-07-13T12:41:48;22.30;99.90
17715;DHT22;8977;50.902;4.314;2023-07-13T12:44:17;22.20;99.90
17715;DHT22;8977;50.902;4.314;2023-07-13T12:46:57;22.20;99.90
17715;DHT22;8977;50.902;4.314;2023-07-13T12:49:28;22.20;99.90
17715;DHT22;8977;50.902;4.314;2023-07-13T12:52:01;22.20;99.90
17715;DHT22;8977;50.902;4.314;2023-07-13T12:54:30;22.20;99.90
17715;DHT22;8977;50.902;4.314;2023-07-13T12:56:59;22.20;99.90
17715;DHT22;8977;50.902;4.314;2023-07-13T12:59:31;22.20;99.90
17715;DHT22;8977;50.902;4.314;2023-07-13T13:02:02;22.20;99.90
17715;DHT22;8977;50.902;4.314;2023-07-13T13:04:30;22.20;99.90
17715;DHT22;8977;50.902;4.314;2023-07-13T13:07:08;22.30;99.90
17715;DHT22;8977;50.902;4.314;2023-07-13T13:09:37;22.30;99.90
17715;DHT22;8977;50.902;4.314;2023-07-13T13:12:04;22.30;99.90
17715;DHT22;8977;50.902;4.314;2023-07-13T13:14:32;22.30;99.90
17715;DHT22;8977;50.902;4.314;2023-07-13T13:16:59;22.30;99.90
17715;DHT22;8977;50.902;4.314;2023-07-13T13:19:28;22.30;99.90
17715;DHT22;8977;50.902;4.314;2023-07-13T13:21:56;22.30;99.90
17715;DHT22;8977;50.902;4.314;2023-07-13T13:24:27;22.30;99.90
17715;DHT22;8977;50.902;4.314;2023-07-13T13:26:56;22.30;99.90
17715;DHT22;8977;50.902;4.314;2023-07-13T13:29:24;22.30;99.90
17715;DHT22;8977;50.902;4.314;2023-07-13T13:31:51;22.30;99.90
17715;DHT22;8977;50.902;4.314;2023-07-13T13:34:19;22.40;99.90
17715;DHT22;8977;50.902;4.314;2023-07-13T13:36:49;22.50;99.90
17715;DHT22;8977;50.902;4.314;2023-07-13T13:39:21;22.60;99.90
17715;DHT22;8977;50.902;4.314;2023-07-13T13:41:49;22.80;99.90
17715;DHT22;8977;50.902;4.314;2023-07-13T13:44:18;23.00;99.90
17715;DHT22;8977;50.902;4.314;2023-07-13T13:46:47;23.10;99.90
17715;DHT22;8977;50.902;4.314;2023-07-13T13:49:17;23.30;99.90
17715;DHT22;8977;50.902;4.314;2023-07-13T13:51:44;23.40;99.90
17715;DHT22;8977;50.902;4.314;2023-07-13T13:54:13;23.60;99.90
17715;DHT22;8977;50.902;4.314;2023-07-13T13:56:42;23.60;99.90
17715;DHT22;8977;50.902;4.314;2023-07-13T13:59:09;23.70;99.90
17715;DHT22;8977;50.902;4.314;2023-07-13T14:01:38;23.80;99.90
17715;DHT22;8977;50.902;4.314;2023-07-13T14:04:06;23.90;99.90
17715;DHT22;8977;50.902;4.314;2023-07-13T14:06:34;24.00;99.90
17715;DHT22;8977;50.902;4.314;2023-07-13T14:09:01;24.10;99.90
17715;DHT22;8977;50.902;4.314;2023-07-13T14:11:29;24.20;99.90
17715;DHT22;8977;50.902;4.314;2023-07-13T14:13:59;24.20;99.90
17715;DHT22;8977;50.902;4.314;2023-07-13T14:16:29;24.20;99.90
17715;DHT22;8977;50.902;4.314;2023-07-13T14:18:59;24.40;99.90
17715;DHT22;8977;50.902;4.314;2023-07-13T14:21:27;24.40;99.90
17715;DHT22;8977;50.902;4.314;2023-07-13T14:23:55;24.50;99.90
17715;DHT22;8977;50.902;4.314;2023-07-13T14:26:23;24.60;99.90
17715;DHT22;8977;50.902;4.314;2023-07-13T14:28:52;24.60;99.90
17715;DHT22;8977;50.902;4.314;2023-07-13T14:31:20;24.60;99.90
17715;DHT22;8977;50.902;4.314;2023-07-13T14:33:47;24.70;99.90
17715;DHT22;8977;50.902;4.314;2023-07-13T14:36:24;24.70;99.90
17715;DHT22;8977;50.902;4.314;2023-07-13T14:38:52;24.70;99.90
17715;DHT22;8977;50.902;4.314;2023-07-13T14:41:19;24.70;99.90
17715;DHT22;8977;50.902;4.314;2023-07-13T14:43:47;24.70;99.90
17715;DHT22;8977;50.902;4.314;2023-07-13T14:46:28;24.70;99.90
17715;DHT22;8977;50.902;4.314;2023-07-13T14:49:00;24.70;99.90
17715;DHT22;8977;50.902;4.314;2023-07-13T14:51:30;24.60;99.90
17715;DHT22;8977;50.902;4.314;2023-07-13T14:54:01;24.70;99.90
17715;DHT22;8977;50.902;4.314;2023-07-13T14:56:28;24.70;99.90
17715;DHT22;8977;50.902;4.314;2023-07-13T14:58:55;24.70;99.90
17715;DHT22;8977;50.902;4.314;2023-07-13T15:01:23;24.80;99.90
17715;DHT22;8977;50.902;4.314;2023-07-13T15:03:52;24.90;99.90
17715;DHT22;8977;50.902;4.314;2023-07-13T15:06:19;24.90;99.90
17715;DHT22;8977;50.902;4.314;2023-07-13T15:08:48;25.00;99.90
17715;DHT22;8977;50.902;4.314;2023-07-13T15:11:17;25.10;99.90
17715;DHT22;8977;50.902;4.314;2023-07-13T15:13:44;25.10;99.90
17715;DHT22;8977;50.902;4.314;2023-07-13T15:16:17;25.20;99.90
17715;DHT22;8977;50.902;4.314;2023-07-13T15:18:45;25.20;99.90
17715;DHT22;8977;50.902;4.314;2023-07-13T15:21:19;25.20;99.90
17715;DHT22;8977;50.902;4.314;2023-07-13T15:23:46;25.30;99.90
17715;DHT22;8977;50.902;4.314;2023-07-13T15:26:16;25.30;99.90
17715;DHT22;8977;50.902;4.314;2023-07-13T15:28:45;25.40;99.90
17715;DHT22;8977;50.902;4.314;2023-07-13T15:31:21;25.40;99.90
17715;DHT22;8977;50.902;4.314;2023-07-13T15:33:50;25.40;99.50
17715;DHT22;8977;50.902;4.314;2023-07-13T15:36:17;25.30;99.90
17715;DHT22;8977;50.902;4.314;2023-07-13T15:38:45;25.40;99.50
17715;DHT22;8977;50.902;4.314;2023-07-13T15:41:29;25.40;98.40
17715;DHT22;8977;50.902;4.314;2023-07-13T15:43:57;25.30;98.20
17715;DHT22;8977;50.902;4.314;2023-07-13T15:46:25;25.20;97.70
17715;DHT22;8977;50.902;4.314;2023-07-13T15:48:54;25.20;97.90
17715;DHT22;8977;50.902;4.314;2023-07-13T15:51:24;25.30;97.20
17715;DHT22;8977;50.902;4.314;2023-07-13T15:53:53;25.40;97.10
17715;DHT22;8977;50.902;4.314;2023-07-13T15:56:23;25.40;96.90
17715;DHT22;8977;50.902;4.314;2023-07-13T15:58:52;25.40;97.00
17715;DHT22;8977;50.902;4.314;2023-07-13T16:01:20;25.50;96.70
17715;DHT22;8977;50.902;4.314;2023-07-13T16:03:47;25.50;96.70